Blue Ash, Ohio
Current Conditions -  °F | °C
As of 4:53 AM on Friday 19 Dec 2014 (Local Time) from KLUK Reporting Station
Broken Clouds Broken Clouds  
Wind Chill: 23°   Ceiling: 2100
Heat Index: 23°   Visibility: 7mi
Dew Point: 21°   Wind: 0mph
Humidity: 92%   Direction: NA
Pressure: 30.27"   Gusts: NA
Location:  39.24°N, 84.39°W
Report Text: KLUK 190953Z AUTO 00000KT 7SM BKN021 M05/M06 A3027 RMK AO2 SLP256 T10501061
Loading
Personal Weather Stations






























Interactive Weather Map New forecast layout! Learn more

10-Day Weather Forecast

Advertisements
Track Severe Weather on mobile